SOCASBEG

Guest
Details From SOCA - Cayenne Rochambeau
To SBEG - Eduardo Gomes
Flight Number -
Tags decoded
Created
Modified
Stats Distance 776 nm / 1,438 km
Max Altitude 0 ft / 0 m
Waypoints 3
Social Downloads 0
Likes 0
Share VATSIM

Download

Looking for another format? Having issues loading an existing format? Contact us
Advertisement - Login to hide

Notes

Requested: SOCA SBSN SBEG

Route

SOCA SBSN SBEG

ID Type Via Altitude Latitude Longitude Leg Dist Tot Dist Heading (true) Name
O SOCA APT - 0 ft / 0 m 4.81981˚ -52.36045˚ - 0 nm - Cayenne Rochambeau
SBSN APT - 0 ft / 0 m -2.42243˚ -54.79279˚ 458 nm 458 nm 199° / 199° SANTAREM
O SBEG APT - 0 ft / 0 m -3.03861˚ -60.04972˚ 317 nm 776 nm 263° / 263° Eduardo Gomes

Altitude Profile

Advertisement - Login to hide

Weather


0- 5 10 15 20 25 30 35+ Temperature / ° C

Clouds and Precipitation
Forecast for 2017-12-15 06:00 UTC. Updated 2 hours ago

Ground ~20,000 ft ~40,000 ft Winds

SOCA

Details ICAO SOCA (CAY)
Name Cayenne Rochambeau
Region French Guiana
Timezone America/Cayenne (UTC-3.0)
Stats Elevation 26 ft / 8 m (AMSL)
Location 4.819807° -52.360446°
Runways 1
Magnetic Variation 18.389° W

METAR

SOCA 150300Z AUTO 00000KT CAVOK 25/24 Q1013 NOSIG

Decode

TAF

TAF SOCA 142300Z 1500/1524 VRB02KT 9999 SCT020 BKN036 FM151200 08010KT 9999 BKN023 PROB30 TEMPO 1506/1512 SHRA FEW014TCU TEMPO 1515/1524 4000 SHRA BKN015TCU

Decode

Departure Runways

ID Width Length Bearing (true) Bearing (mag) Surface Threshold Offset Overrun Length
08 148 ft / 45 m 10,489 ft / 3,197 m 65.20° 83.59° Asphalt 0 ft / 0 m 244 ft / 74 m
26 148 ft / 45 m 10,489 ft / 3,197 m 245.20° 263.59° Asphalt 0 ft / 0 m 0 ft / 0 m

SBEG

Details ICAO SBEG (MAO)
Name Eduardo Gomes
Region Brazil
Timezone America/Manaus (UTC-4.0)
Stats Elevation 264 ft / 80 m (AMSL)
Location -3.038611° -60.049723°
Runways 1
Magnetic Variation 15.761° W

METAR

SBEG 150300Z 10004KT 9999 FEW010 SCT100 24/23 Q1013

Decode

TAF

TAF SBEG 142200Z 1500/1524 09005KT 9999 SCT010 TN23/1505Z TX31/1519Z BECMG 1502/1504 00000KT CAVOK BECMG 1512/1514 06005KT 9999 FEW020 BECMG 1517/1519 SCT020 FEW025TCU RMK PCQ

Decode

Destination Runways

ID Width Length Bearing (true) Bearing (mag) Surface Threshold Offset Overrun Length
10 148 ft / 45 m 8,867 ft / 2,703 m 90.13° 105.89° Asphalt 0 ft / 0 m 215 ft / 66 m
28 148 ft / 45 m 8,867 ft / 2,703 m 270.13° 285.89° Asphalt 0 ft / 0 m 250 ft / 76 m

Approach Navaids

Runway Type Ident Frequency Range Bearing (true) Bearing (mag) Slope Elevation
10 Localiser IEG 110.30 MHz 18 nm / 33 km 90.55° 106.31° - 275 ft / 84 m (AMSL)
10 Glidescope IEG 110.30 MHz 10 nm / 19 km 90.13° 105.89° 3.04° 275 ft / 84 m (AMSL)
10 DME IEG 110.30 MHz 18 nm / 33 km - - - 264 ft / 80 m (AMSL)

Popular Alternatives